Kershaw, South Carolina
Current Conditions -  °F | °C
As of 1:55 PM on Monday 26 Jan 2015 (Local Time) from KCDN Reporting Station
Broken Clouds Broken Clouds  
Wind Chill: 55°   Ceiling: 7000
Heat Index: 55°   Visibility: 10mi
Dew Point: 37°   Wind: 12mph
Humidity: 51%   Direction: 290°WNW
Pressure: 29.63"   Gusts: NA
Location:  34.55°N, 80.58°W
Report Text: KCDN 261855Z AUTO 29010KT 10SM FEW039 SCT050 BKN070 13/03 A2963 RMK AO2 TSNO
Loading
Personal Weather Stations






























Interactive Weather Map New forecast layout! Learn more

10-Day Weather Forecast

Advertisements
Track Severe Weather on mobile